sensor_id;sensor_type;location;lat;lon;timestamp;P1;durP1;ratioP1;P2;durP2;ratioP2
14048;SDS011;7099;53.922;10.728;2023-04-06T00:01:57;15.70;;;9.17;;
14048;SDS011;7099;53.922;10.728;2023-04-06T00:06:03;14.43;;;9.40;;
14048;SDS011;7099;53.922;10.728;2023-04-06T00:10:09;15.10;;;9.27;;
14048;SDS011;7099;53.922;10.728;2023-04-06T00:14:15;14.30;;;8.70;;
14048;SDS011;7099;53.922;10.728;2023-04-06T00:18:22;15.20;;;8.90;;
14048;SDS011;7099;53.922;10.728;2023-04-06T00:22:28;14.93;;;9.00;;
14048;SDS011;7099;53.922;10.728;2023-04-06T00:26:33;15.10;;;9.90;;
14048;SDS011;7099;53.922;10.728;2023-04-06T00:30:39;14.83;;;9.77;;
14048;SDS011;7099;53.922;10.728;2023-04-06T00:34:46;16.43;;;9.10;;
14048;SDS011;7099;53.922;10.728;2023-04-06T00:38:51;13.83;;;8.93;;
14048;SDS011;7099;53.922;10.728;2023-04-06T00:42:57;17.30;;;10.47;;
14048;SDS011;7099;53.922;10.728;2023-04-06T00:47:03;17.57;;;9.70;;
14048;SDS011;7099;53.922;10.728;2023-04-06T00:51:08;14.67;;;9.27;;
14048;SDS011;7099;53.922;10.728;2023-04-06T00:55:14;12.17;;;8.07;;
14048;SDS011;7099;53.922;10.728;2023-04-06T00:59:20;16.90;;;9.47;;
14048;SDS011;7099;53.922;10.728;2023-04-06T01:03:26;15.80;;;9.60;;
14048;SDS011;7099;53.922;10.728;2023-04-06T01:07:31;20.40;;;9.30;;
14048;SDS011;7099;53.922;10.728;2023-04-06T01:11:37;18.87;;;9.30;;
14048;SDS011;7099;53.922;10.728;2023-04-06T01:15:43;18.60;;;9.37;;
14048;SDS011;7099;53.922;10.728;2023-04-06T01:19:49;13.97;;;9.50;;
14048;SDS011;7099;53.922;10.728;2023-04-06T01:23:56;22.50;;;11.50;;
14048;SDS011;7099;53.922;10.728;2023-04-06T01:28:01;17.33;;;9.70;;
14048;SDS011;7099;53.922;10.728;2023-04-06T01:32:07;15.50;;;9.73;;
14048;SDS011;7099;53.922;10.728;2023-04-06T01:36:13;19.93;;;10.50;;
14048;SDS011;7099;53.922;10.728;2023-04-06T01:40:19;13.93;;;8.80;;
14048;SDS011;7099;53.922;10.728;2023-04-06T01:44:25;16.17;;;9.60;;
14048;SDS011;7099;53.922;10.728;2023-04-06T01:48:31;14.90;;;8.80;;
14048;SDS011;7099;53.922;10.728;2023-04-06T01:52:37;19.33;;;9.30;;
14048;SDS011;7099;53.922;10.728;2023-04-06T01:56:43;20.73;;;10.10;;
14048;SDS011;7099;53.922;10.728;2023-04-06T02:00:49;15.80;;;9.20;;
14048;SDS011;7099;53.922;10.728;2023-04-06T02:04:55;18.37;;;10.30;;
14048;SDS011;7099;53.922;10.728;2023-04-06T02:09:00;15.23;;;9.67;;
14048;SDS011;7099;53.922;10.728;2023-04-06T02:13:06;18.53;;;9.77;;
14048;SDS011;7099;53.922;10.728;2023-04-06T02:17:12;21.43;;;12.10;;
14048;SDS011;7099;53.922;10.728;2023-04-06T02:21:17;17.13;;;9.83;;
14048;SDS011;7099;53.922;10.728;2023-04-06T02:25:25;17.53;;;10.20;;
14048;SDS011;7099;53.922;10.728;2023-04-06T02:29:31;16.97;;;10.30;;
14048;SDS011;7099;53.922;10.728;2023-04-06T02:33:36;15.80;;;10.03;;
14048;SDS011;7099;53.922;10.728;2023-04-06T02:37:42;19.97;;;9.83;;
14048;SDS011;7099;53.922;10.728;2023-04-06T02:41:48;18.70;;;10.20;;
14048;SDS011;7099;53.922;10.728;2023-04-06T02:45:54;17.30;;;10.30;;
14048;SDS011;7099;53.922;10.728;2023-04-06T02:49:59;27.43;;;12.00;;
14048;SDS011;7099;53.922;10.728;2023-04-06T02:54:06;27.73;;;11.50;;
14048;SDS011;7099;53.922;10.728;2023-04-06T02:58:12;21.07;;;11.87;;
14048;SDS011;7099;53.922;10.728;2023-04-06T03:02:17;25.40;;;12.20;;
14048;SDS011;7099;53.922;10.728;2023-04-06T03:06:23;34.33;;;14.97;;
14048;SDS011;7099;53.922;10.728;2023-04-06T03:10:29;32.43;;;14.50;;
14048;SDS011;7099;53.922;10.728;2023-04-06T03:14:35;24.77;;;12.03;;
14048;SDS011;7099;53.922;10.728;2023-04-06T03:18:40;22.77;;;12.30;;
14048;SDS011;7099;53.922;10.728;2023-04-06T03:22:46;17.10;;;11.40;;
14048;SDS011;7099;53.922;10.728;2023-04-06T03:26:51;19.87;;;11.13;;
14048;SDS011;7099;53.922;10.728;2023-04-06T03:30:57;21.50;;;11.00;;
14048;SDS011;7099;53.922;10.728;2023-04-06T03:35:03;18.30;;;10.70;;
14048;SDS011;7099;53.922;10.728;2023-04-06T03:39:09;17.77;;;10.50;;
14048;SDS011;7099;53.922;10.728;2023-04-06T03:43:15;19.13;;;10.17;;
14048;SDS011;7099;53.922;10.728;2023-04-06T03:47:21;23.50;;;11.47;;
14048;SDS011;7099;53.922;10.728;2023-04-06T03:51:27;18.97;;;10.00;;
14048;SDS011;7099;53.922;10.728;2023-04-06T03:55:33;23.13;;;10.80;;
14048;SDS011;7099;53.922;10.728;2023-04-06T03:59:38;17.27;;;10.10;;
14048;SDS011;7099;53.922;10.728;2023-04-06T04:03:44;21.40;;;10.40;;
14048;SDS011;7099;53.922;10.728;2023-04-06T04:07:50;17.60;;;9.57;;
14048;SDS011;7099;53.922;10.728;2023-04-06T04:11:57;20.57;;;10.33;;
14048;SDS011;7099;53.922;10.728;2023-04-06T04:16:02;18.87;;;10.50;;
14048;SDS011;7099;53.922;10.728;2023-04-06T04:20:08;17.43;;;10.37;;
14048;SDS011;7099;53.922;10.728;2023-04-06T04:24:14;19.00;;;10.10;;
14048;SDS011;7099;53.922;10.728;2023-04-06T04:28:20;20.00;;;10.90;;
14048;SDS011;7099;53.922;10.728;2023-04-06T04:32:26;14.30;;;9.10;;
14048;SDS011;7099;53.922;10.728;2023-04-06T04:36:32;19.63;;;11.03;;
14048;SDS011;7099;53.922;10.728;2023-04-06T04:40:38;16.43;;;9.43;;
14048;SDS011;7099;53.922;10.728;2023-04-06T04:44:43;20.00;;;10.17;;
14048;SDS011;7099;53.922;10.728;2023-04-06T04:48:49;21.80;;;10.27;;
14048;SDS011;7099;53.922;10.728;2023-04-06T04:52:55;16.77;;;10.90;;
14048;SDS011;7099;53.922;10.728;2023-04-06T04:57:00;17.70;;;10.30;;
14048;SDS011;7099;53.922;10.728;2023-04-06T05:01:06;22.20;;;11.07;;
14048;SDS011;7099;53.922;10.728;2023-04-06T05:05:13;21.27;;;10.67;;
14048;SDS011;7099;53.922;10.728;2023-04-06T05:09:18;18.13;;;10.47;;
14048;SDS011;7099;53.922;10.728;2023-04-06T05:13:24;19.97;;;10.87;;
14048;SDS011;7099;53.922;10.728;2023-04-06T05:17:30;19.93;;;10.97;;
14048;SDS011;7099;53.922;10.728;2023-04-06T05:21:35;19.20;;;11.10;;
14048;SDS011;7099;53.922;10.728;2023-04-06T05:25:41;16.20;;;10.20;;
14048;SDS011;7099;53.922;10.728;2023-04-06T05:29:46;18.63;;;10.20;;
14048;SDS011;7099;53.922;10.728;2023-04-06T05:33:52;19.90;;;11.60;;
14048;SDS011;7099;53.922;10.728;2023-04-06T05:37:58;21.07;;;12.00;;
14048;SDS011;7099;53.922;10.728;2023-04-06T05:42:04;20.60;;;12.33;;
14048;SDS011;7099;53.922;10.728;2023-04-06T05:46:11;22.00;;;12.33;;
14048;SDS011;7099;53.922;10.728;2023-04-06T05:50:17;25.67;;;13.47;;
14048;SDS011;7099;53.922;10.728;2023-04-06T05:54:22;22.37;;;13.20;;
14048;SDS011;7099;53.922;10.728;2023-04-06T05:58:28;24.73;;;13.67;;
14048;SDS011;7099;53.922;10.728;2023-04-06T06:02:34;22.73;;;13.20;;
14048;SDS011;7099;53.922;10.728;2023-04-06T06:06:40;28.03;;;13.60;;
14048;SDS011;7099;53.922;10.728;2023-04-06T06:10:46;26.47;;;14.17;;
14048;SDS011;7099;53.922;10.728;2023-04-06T06:14:52;27.73;;;13.27;;
14048;SDS011;7099;53.922;10.728;2023-04-06T06:18:57;24.40;;;12.93;;
14048;SDS011;7099;53.922;10.728;2023-04-06T06:23:03;28.90;;;14.27;;
14048;SDS011;7099;53.922;10.728;2023-04-06T06:27:09;24.83;;;15.20;;
14048;SDS011;7099;53.922;10.728;2023-04-06T06:31:15;27.50;;;15.73;;
14048;SDS011;7099;53.922;10.728;2023-04-06T06:35:21;27.43;;;15.87;;
14048;SDS011;7099;53.922;10.728;2023-04-06T06:39:27;33.53;;;17.03;;
14048;SDS011;7099;53.922;10.728;2023-04-06T06:43:33;36.63;;;17.53;;
14048;SDS011;7099;53.922;10.728;2023-04-06T06:47:39;33.50;;;17.50;;
14048;SDS011;7099;53.922;10.728;2023-04-06T06:51:46;26.10;;;16.13;;
14048;SDS011;7099;53.922;10.728;2023-04-06T06:55:51;32.53;;;15.20;;
14048;SDS011;7099;53.922;10.728;2023-04-06T06:59:57;28.90;;;15.20;;
14048;SDS011;7099;53.922;10.728;2023-04-06T07:04:04;24.87;;;14.40;;
14048;SDS011;7099;53.922;10.728;2023-04-06T07:08:11;22.40;;;13.53;;
14048;SDS011;7099;53.922;10.728;2023-04-06T07:12:16;23.10;;;12.40;;
14048;SDS011;7099;53.922;10.728;2023-04-06T07:16:22;21.90;;;12.80;;
14048;SDS011;7099;53.922;10.728;2023-04-06T07:20:28;19.70;;;10.30;;
14048;SDS011;7099;53.922;10.728;2023-04-06T07:24:33;16.53;;;10.43;;
14048;SDS011;7099;53.922;10.728;2023-04-06T07:28:39;17.73;;;9.90;;
14048;SDS011;7099;53.922;10.728;2023-04-06T07:32:45;13.27;;;8.73;;
14048;SDS011;7099;53.922;10.728;2023-04-06T07:36:51;9.93;;;7.47;;
14048;SDS011;7099;53.922;10.728;2023-04-06T07:40:58;13.73;;;7.57;;
14048;SDS011;7099;53.922;10.728;2023-04-06T07:45:05;12.03;;;7.03;;
14048;SDS011;7099;53.922;10.728;2023-04-06T07:49:11;10.77;;;7.17;;
14048;SDS011;7099;53.922;10.728;2023-04-06T07:53:17;14.73;;;6.87;;
14048;SDS011;7099;53.922;10.728;2023-04-06T07:57:22;11.03;;;7.00;;
14048;SDS011;7099;53.922;10.728;2023-04-06T08:01:28;11.30;;;6.40;;
14048;SDS011;7099;53.922;10.728;2023-04-06T08:05:34;8.17;;;6.53;;
14048;SDS011;7099;53.922;10.728;2023-04-06T08:09:40;9.00;;;6.10;;
14048;SDS011;7099;53.922;10.728;2023-04-06T08:13:46;9.63;;;6.30;;
14048;SDS011;7099;53.922;10.728;2023-04-06T08:17:51;9.83;;;6.80;;
14048;SDS011;7099;53.922;10.728;2023-04-06T08:21:57;8.67;;;6.40;;
14048;SDS011;7099;53.922;10.728;2023-04-06T08:26:03;7.70;;;5.90;;
14048;SDS011;7099;53.922;10.728;2023-04-06T08:30:09;9.23;;;6.80;;
14048;SDS011;7099;53.922;10.728;2023-04-06T08:34:15;16.33;;;7.30;;
14048;SDS011;7099;53.922;10.728;2023-04-06T08:38:20;11.90;;;6.53;;
14048;SDS011;7099;53.922;10.728;2023-04-06T08:42:32;12.40;;;7.93;;
14048;SDS011;7099;53.922;10.728;2023-04-06T08:46:38;10.63;;;7.20;;
14048;SDS011;7099;53.922;10.728;2023-04-06T08:50:44;11.87;;;6.07;;
14048;SDS011;7099;53.922;10.728;2023-04-06T08:54:50;7.33;;;5.23;;
14048;SDS011;7099;53.922;10.728;2023-04-06T08:58:55;7.70;;;5.93;;
14048;SDS011;7099;53.922;10.728;2023-04-06T09:03:02;7.20;;;5.30;;
14048;SDS011;7099;53.922;10.728;2023-04-06T09:07:10;6.70;;;4.97;;
14048;SDS011;7099;53.922;10.728;2023-04-06T09:11:15;7.40;;;6.03;;
14048;SDS011;7099;53.922;10.728;2023-04-06T09:15:21;8.80;;;4.93;;
14048;SDS011;7099;53.922;10.728;2023-04-06T09:19:28;6.00;;;4.10;;
14048;SDS011;7099;53.922;10.728;2023-04-06T09:23:34;5.03;;;4.00;;
14048;SDS011;7099;53.922;10.728;2023-04-06T09:27:40;7.60;;;4.40;;
14048;SDS011;7099;53.922;10.728;2023-04-06T09:31:48;5.83;;;3.70;;
14048;SDS011;7099;53.922;10.728;2023-04-06T09:35:54;4.90;;;3.17;;
14048;SDS011;7099;53.922;10.728;2023-04-06T09:40:06;4.90;;;3.40;;
14048;SDS011;7099;53.922;10.728;2023-04-06T09:44:12;3.90;;;3.17;;
14048;SDS011;7099;53.922;10.728;2023-04-06T09:48:19;4.00;;;2.77;;
14048;SDS011;7099;53.922;10.728;2023-04-06T09:52:38;6.10;;;2.80;;
14048;SDS011;7099;53.922;10.728;2023-04-06T09:56:56;3.00;;;2.17;;
14048;SDS011;7099;53.922;10.728;2023-04-06T10:01:20;2.83;;;2.13;;
14048;SDS011;7099;53.922;10.728;2023-04-06T10:05:40;4.00;;;1.80;;
14048;SDS011;7099;53.922;10.728;2023-04-06T10:09:51;10.23;;;2.03;;
14048;SDS011;7099;53.922;10.728;2023-04-06T10:13:59;2.67;;;2.03;;
14048;SDS011;7099;53.922;10.728;2023-04-06T10:18:05;3.30;;;2.10;;
14048;SDS011;7099;53.922;10.728;2023-04-06T10:22:12;3.33;;;1.77;;
14048;SDS011;7099;53.922;10.728;2023-04-06T10:26:29;3.40;;;2.47;;
14048;SDS011;7099;53.922;10.728;2023-04-06T10:30:41;2.90;;;2.10;;
14048;SDS011;7099;53.922;10.728;2023-04-06T10:34:48;2.40;;;2.10;;
14048;SDS011;7099;53.922;10.728;2023-04-06T10:38:55;4.73;;;2.30;;
14048;SDS011;7099;53.922;10.728;2023-04-06T10:43:10;3.60;;;1.90;;
14048;SDS011;7099;53.922;10.728;2023-04-06T10:47:24;3.70;;;2.37;;
14048;SDS011;7099;53.922;10.728;2023-04-06T10:51:30;3.17;;;2.43;;
14048;SDS011;7099;53.922;10.728;2023-04-06T10:55:40;2.07;;;1.70;;
14048;SDS011;7099;53.922;10.728;2023-04-06T10:59:48;3.03;;;2.10;;
14048;SDS011;7099;53.922;10.728;2023-04-06T11:03:54;3.83;;;2.43;;
14048;SDS011;7099;53.922;10.728;2023-04-06T11:08:04;3.20;;;2.53;;
14048;SDS011;7099;53.922;10.728;2023-04-06T11:12:19;3.30;;;2.70;;
14048;SDS011;7099;53.922;10.728;2023-04-06T11:20:37;4.63;;;2.53;;
14048;SDS011;7099;53.922;10.728;2023-04-06T11:24:43;3.43;;;2.90;;
14048;SDS011;7099;53.922;10.728;2023-04-06T11:28:49;4.80;;;3.10;;
14048;SDS011;7099;53.922;10.728;2023-04-06T11:32:59;3.87;;;2.60;;
14048;SDS011;7099;53.922;10.728;2023-04-06T11:37:11;3.60;;;2.60;;
14048;SDS011;7099;53.922;10.728;2023-04-06T11:41:22;4.20;;;3.17;;
14048;SDS011;7099;53.922;10.728;2023-04-06T11:45:39;3.73;;;2.53;;
14048;SDS011;7099;53.922;10.728;2023-04-06T11:49:47;4.80;;;2.97;;
14048;SDS011;7099;53.922;10.728;2023-04-06T11:53:54;5.77;;;2.90;;
14048;SDS011;7099;53.922;10.728;2023-04-06T11:58:00;6.13;;;3.20;;
14048;SDS011;7099;53.922;10.728;2023-04-06T12:02:06;9.30;;;3.10;;
14048;SDS011;7099;53.922;10.728;2023-04-06T12:06:12;4.13;;;2.93;;
14048;SDS011;7099;53.922;10.728;2023-04-06T12:10:18;2.80;;;2.50;;
14048;SDS011;7099;53.922;10.728;2023-04-06T12:14:23;6.37;;;3.30;;
14048;SDS011;7099;53.922;10.728;2023-04-06T12:18:29;5.83;;;2.73;;
14048;SDS011;7099;53.922;10.728;2023-04-06T12:22:35;4.90;;;3.40;;
14048;SDS011;7099;53.922;10.728;2023-04-06T12:26:42;3.97;;;3.50;;
14048;SDS011;7099;53.922;10.728;2023-04-06T12:30:48;4.63;;;3.73;;
14048;SDS011;7099;53.922;10.728;2023-04-06T12:34:53;4.40;;;3.20;;
14048;SDS011;7099;53.922;10.728;2023-04-06T12:38:59;3.97;;;3.47;;
14048;SDS011;7099;53.922;10.728;2023-04-06T12:43:05;4.67;;;4.07;;
14048;SDS011;7099;53.922;10.728;2023-04-06T12:47:11;6.70;;;4.50;;
14048;SDS011;7099;53.922;10.728;2023-04-06T12:51:17;5.17;;;3.90;;
14048;SDS011;7099;53.922;10.728;2023-04-06T12:55:23;4.50;;;4.00;;
14048;SDS011;7099;53.922;10.728;2023-04-06T12:59:31;6.57;;;4.00;;
14048;SDS011;7099;53.922;10.728;2023-04-06T13:03:40;4.87;;;3.93;;
14048;SDS011;7099;53.922;10.728;2023-04-06T13:07:46;4.43;;;4.00;;
14048;SDS011;7099;53.922;10.728;2023-04-06T13:11:52;6.37;;;4.30;;
14048;SDS011;7099;53.922;10.728;2023-04-06T13:16:02;5.23;;;3.93;;
14048;SDS011;7099;53.922;10.728;2023-04-06T13:20:10;4.87;;;3.77;;
14048;SDS011;7099;53.922;10.728;2023-04-06T13:24:17;6.20;;;4.30;;
14048;SDS011;7099;53.922;10.728;2023-04-06T13:28:22;4.83;;;4.33;;
14048;SDS011;7099;53.922;10.728;2023-04-06T13:32:28;5.87;;;4.60;;
14048;SDS011;7099;53.922;10.728;2023-04-06T13:36:34;5.10;;;4.23;;
14048;SDS011;7099;53.922;10.728;2023-04-06T13:40:40;5.50;;;4.50;;
14048;SDS011;7099;53.922;10.728;2023-04-06T13:44:46;5.93;;;4.80;;
14048;SDS011;7099;53.922;10.728;2023-04-06T13:48:52;6.90;;;4.80;;
14048;SDS011;7099;53.922;10.728;2023-04-06T13:52:58;6.70;;;5.07;;
14048;SDS011;7099;53.922;10.728;2023-04-06T13:57:06;6.47;;;4.50;;
14048;SDS011;7099;53.922;10.728;2023-04-06T14:01:12;6.93;;;5.47;;
14048;SDS011;7099;53.922;10.728;2023-04-06T14:05:18;6.30;;;5.53;;
14048;SDS011;7099;53.922;10.728;2023-04-06T14:09:23;5.60;;;5.10;;
14048;SDS011;7099;53.922;10.728;2023-04-06T14:13:29;6.17;;;4.90;;
14048;SDS011;7099;53.922;10.728;2023-04-06T14:17:35;8.10;;;5.30;;
14048;SDS011;7099;53.922;10.728;2023-04-06T14:21:41;7.40;;;5.80;;
14048;SDS011;7099;53.922;10.728;2023-04-06T14:25:48;8.00;;;5.50;;
14048;SDS011;7099;53.922;10.728;2023-04-06T14:29:54;7.63;;;5.37;;
14048;SDS011;7099;53.922;10.728;2023-04-06T14:34:03;8.80;;;5.60;;
14048;SDS011;7099;53.922;10.728;2023-04-06T14:38:09;7.37;;;6.23;;
14048;SDS011;7099;53.922;10.728;2023-04-06T14:42:14;8.40;;;5.60;;
14048;SDS011;7099;53.922;10.728;2023-04-06T14:46:20;7.83;;;5.70;;
14048;SDS011;7099;53.922;10.728;2023-04-06T14:50:26;8.13;;;4.97;;
14048;SDS011;7099;53.922;10.728;2023-04-06T14:54:32;6.33;;;5.57;;
14048;SDS011;7099;53.922;10.728;2023-04-06T14:58:38;6.63;;;5.27;;
14048;SDS011;7099;53.922;10.728;2023-04-06T15:02:44;6.27;;;5.13;;
14048;SDS011;7099;53.922;10.728;2023-04-06T15:06:52;6.63;;;5.67;;
14048;SDS011;7099;53.922;10.728;2023-04-06T15:10:58;8.67;;;6.10;;
14048;SDS011;7099;53.922;10.728;2023-04-06T15:15:04;7.30;;;5.77;;
14048;SDS011;7099;53.922;10.728;2023-04-06T15:19:11;6.30;;;5.50;;
14048;SDS011;7099;53.922;10.728;2023-04-06T15:23:16;7.67;;;6.20;;
14048;SDS011;7099;53.922;10.728;2023-04-06T15:27:24;7.13;;;6.07;;
14048;SDS011;7099;53.922;10.728;2023-04-06T15:31:30;9.60;;;6.10;;
14048;SDS011;7099;53.922;10.728;2023-04-06T15:35:42;8.87;;;5.83;;
14048;SDS011;7099;53.922;10.728;2023-04-06T15:39:47;8.43;;;5.90;;
14048;SDS011;7099;53.922;10.728;2023-04-06T15:43:53;6.60;;;5.70;;
14048;SDS011;7099;53.922;10.728;2023-04-06T15:47:59;9.97;;;6.03;;
14048;SDS011;7099;53.922;10.728;2023-04-06T15:52:05;7.73;;;5.37;;
14048;SDS011;7099;53.922;10.728;2023-04-06T15:56:12;7.83;;;6.40;;
14048;SDS011;7099;53.922;10.728;2023-04-06T16:00:18;7.10;;;5.87;;
14048;SDS011;7099;53.922;10.728;2023-04-06T16:04:25;8.33;;;6.10;;
14048;SDS011;7099;53.922;10.728;2023-04-06T16:08:31;6.97;;;5.50;;
14048;SDS011;7099;53.922;10.728;2023-04-06T16:12:45;9.53;;;5.73;;
14048;SDS011;7099;53.922;10.728;2023-04-06T16:16:51;7.17;;;5.50;;
14048;SDS011;7099;53.922;10.728;2023-04-06T16:20:59;12.17;;;5.53;;
14048;SDS011;7099;53.922;10.728;2023-04-06T16:25:04;7.00;;;5.27;;
14048;SDS011;7099;53.922;10.728;2023-04-06T16:29:10;6.07;;;5.20;;
14048;SDS011;7099;53.922;10.728;2023-04-06T16:33:20;6.97;;;5.53;;
14048;SDS011;7099;53.922;10.728;2023-04-06T16:37:27;6.83;;;5.50;;
14048;SDS011;7099;53.922;10.728;2023-04-06T16:41:35;6.90;;;4.90;;
14048;SDS011;7099;53.922;10.728;2023-04-06T16:45:40;8.67;;;5.47;;
14048;SDS011;7099;53.922;10.728;2023-04-06T16:49:47;8.60;;;5.50;;
14048;SDS011;7099;53.922;10.728;2023-04-06T16:53:53;6.10;;;5.47;;
14048;SDS011;7099;53.922;10.728;2023-04-06T16:57:59;6.73;;;5.47;;
14048;SDS011;7099;53.922;10.728;2023-04-06T17:02:06;9.73;;;5.90;;
14048;SDS011;7099;53.922;10.728;2023-04-06T17:06:12;5.97;;;5.37;;
14048;SDS011;7099;53.922;10.728;2023-04-06T17:10:18;8.27;;;5.30;;
14048;SDS011;7099;53.922;10.728;2023-04-06T17:14:38;5.80;;;5.20;;
14048;SDS011;7099;53.922;10.728;2023-04-06T17:18:44;7.87;;;5.23;;
14048;SDS011;7099;53.922;10.728;2023-04-06T17:22:49;7.77;;;5.43;;
14048;SDS011;7099;53.922;10.728;2023-04-06T17:26:55;4.97;;;4.47;;
14048;SDS011;7099;53.922;10.728;2023-04-06T17:31:01;10.00;;;4.73;;
14048;SDS011;7099;53.922;10.728;2023-04-06T17:35:12;5.77;;;4.60;;
14048;SDS011;7099;53.922;10.728;2023-04-06T17:39:17;6.20;;;4.70;;
14048;SDS011;7099;53.922;10.728;2023-04-06T17:43:23;6.83;;;4.87;;
14048;SDS011;7099;53.922;10.728;2023-04-06T17:47:29;7.83;;;4.50;;
14048;SDS011;7099;53.922;10.728;2023-04-06T17:51:37;9.63;;;4.87;;
14048;SDS011;7099;53.922;10.728;2023-04-06T17:55:43;7.93;;;5.70;;
14048;SDS011;7099;53.922;10.728;2023-04-06T17:59:48;5.20;;;4.70;;
14048;SDS011;7099;53.922;10.728;2023-04-06T18:03:54;6.23;;;5.10;;
14048;SDS011;7099;53.922;10.728;2023-04-06T18:08:00;7.03;;;5.03;;
14048;SDS011;7099;53.922;10.728;2023-04-06T18:12:05;6.23;;;4.90;;
14048;SDS011;7099;53.922;10.728;2023-04-06T18:16:11;8.33;;;5.30;;
14048;SDS011;7099;53.922;10.728;2023-04-06T18:20:18;8.00;;;5.40;;
14048;SDS011;7099;53.922;10.728;2023-04-06T18:24:23;10.63;;;5.27;;
14048;SDS011;7099;53.922;10.728;2023-04-06T18:28:46;7.77;;;5.77;;
14048;SDS011;7099;53.922;10.728;2023-04-06T18:32:52;10.27;;;6.30;;
14048;SDS011;7099;53.922;10.728;2023-04-06T18:36:57;13.53;;;9.20;;
14048;SDS011;7099;53.922;10.728;2023-04-06T18:41:05;11.37;;;9.30;;
14048;SDS011;7099;53.922;10.728;2023-04-06T18:45:11;11.10;;;7.63;;
14048;SDS011;7099;53.922;10.728;2023-04-06T18:49:16;8.80;;;7.43;;
14048;SDS011;7099;53.922;10.728;2023-04-06T18:53:22;11.73;;;7.80;;
14048;SDS011;7099;53.922;10.728;2023-04-06T18:57:27;7.77;;;6.43;;
14048;SDS011;7099;53.922;10.728;2023-04-06T19:01:34;8.27;;;6.63;;
14048;SDS011;7099;53.922;10.728;2023-04-06T19:05:44;8.37;;;6.50;;
14048;SDS011;7099;53.922;10.728;2023-04-06T19:09:50;9.70;;;6.40;;
14048;SDS011;7099;53.922;10.728;2023-04-06T19:13:55;9.90;;;6.20;;
14048;SDS011;7099;53.922;10.728;2023-04-06T19:18:01;8.27;;;6.50;;
14048;SDS011;7099;53.922;10.728;2023-04-06T19:22:08;8.53;;;6.30;;
14048;SDS011;7099;53.922;10.728;2023-04-06T19:26:15;10.67;;;7.80;;
14048;SDS011;7099;53.922;10.728;2023-04-06T19:30:22;10.10;;;7.40;;
14048;SDS011;7099;53.922;10.728;2023-04-06T19:34:28;12.97;;;10.07;;
14048;SDS011;7099;53.922;10.728;2023-04-06T19:38:34;13.07;;;8.23;;
14048;SDS011;7099;53.922;10.728;2023-04-06T19:42:40;12.30;;;7.67;;
14048;SDS011;7099;53.922;10.728;2023-04-06T19:46:46;8.50;;;6.10;;
14048;SDS011;7099;53.922;10.728;2023-04-06T19:50:52;11.73;;;6.13;;
14048;SDS011;7099;53.922;10.728;2023-04-06T19:54:58;10.57;;;6.80;;
14048;SDS011;7099;53.922;10.728;2023-04-06T19:59:04;8.27;;;6.13;;
14048;SDS011;7099;53.922;10.728;2023-04-06T20:03:10;6.80;;;5.57;;
14048;SDS011;7099;53.922;10.728;2023-04-06T20:07:16;11.63;;;6.33;;
14048;SDS011;7099;53.922;10.728;2023-04-06T20:11:22;9.47;;;6.23;;
14048;SDS011;7099;53.922;10.728;2023-04-06T20:15:27;14.90;;;7.00;;
14048;SDS011;7099;53.922;10.728;2023-04-06T20:19:34;11.73;;;7.07;;
14048;SDS011;7099;53.922;10.728;2023-04-06T20:23:39;8.63;;;7.10;;
14048;SDS011;7099;53.922;10.728;2023-04-06T20:27:45;10.20;;;7.03;;
14048;SDS011;7099;53.922;10.728;2023-04-06T20:31:51;9.70;;;6.80;;
14048;SDS011;7099;53.922;10.728;2023-04-06T20:35:57;8.13;;;6.20;;
14048;SDS011;7099;53.922;10.728;2023-04-06T20:40:04;9.63;;;7.13;;
14048;SDS011;7099;53.922;10.728;2023-04-06T20:44:11;8.43;;;6.40;;
14048;SDS011;7099;53.922;10.728;2023-04-06T20:48:17;12.43;;;5.70;;
14048;SDS011;7099;53.922;10.728;2023-04-06T20:52:23;10.30;;;6.27;;
14048;SDS011;7099;53.922;10.728;2023-04-06T20:56:28;13.10;;;6.50;;
14048;SDS011;7099;53.922;10.728;2023-04-06T21:00:34;8.33;;;6.23;;
14048;SDS011;7099;53.922;10.728;2023-04-06T21:04:41;9.20;;;5.50;;
14048;SDS011;7099;53.922;10.728;2023-04-06T21:08:47;16.83;;;6.60;;
14048;SDS011;7099;53.922;10.728;2023-04-06T21:12:53;9.13;;;6.77;;
14048;SDS011;7099;53.922;10.728;2023-04-06T21:16:58;7.13;;;5.90;;
14048;SDS011;7099;53.922;10.728;2023-04-06T21:21:04;9.93;;;6.50;;
14048;SDS011;7099;53.922;10.728;2023-04-06T21:25:10;12.17;;;7.50;;
14048;SDS011;7099;53.922;10.728;2023-04-06T21:29:17;7.60;;;6.40;;
14048;SDS011;7099;53.922;10.728;2023-04-06T21:33:23;9.20;;;6.00;;
14048;SDS011;7099;53.922;10.728;2023-04-06T21:37:29;9.70;;;6.50;;
14048;SDS011;7099;53.922;10.728;2023-04-06T21:41:34;7.33;;;5.63;;
14048;SDS011;7099;53.922;10.728;2023-04-06T21:45:40;9.77;;;6.43;;
14048;SDS011;7099;53.922;10.728;2023-04-06T21:49:54;11.93;;;6.70;;
14048;SDS011;7099;53.922;10.728;2023-04-06T21:54:00;10.50;;;5.90;;
14048;SDS011;7099;53.922;10.728;2023-04-06T21:58:06;8.43;;;5.97;;
14048;SDS011;7099;53.922;10.728;2023-04-06T22:02:11;8.53;;;6.00;;
14048;SDS011;7099;53.922;10.728;2023-04-06T22:06:17;11.00;;;5.90;;
14048;SDS011;7099;53.922;10.728;2023-04-06T22:10:23;11.20;;;5.73;;
14048;SDS011;7099;53.922;10.728;2023-04-06T22:14:29;6.60;;;4.87;;
14048;SDS011;7099;53.922;10.728;2023-04-06T22:18:35;11.97;;;5.60;;
14048;SDS011;7099;53.922;10.728;2023-04-06T22:22:43;7.63;;;5.33;;
14048;SDS011;7099;53.922;10.728;2023-04-06T22:26:48;5.83;;;4.70;;
14048;SDS011;7099;53.922;10.728;2023-04-06T22:30:54;6.60;;;5.20;;
14048;SDS011;7099;53.922;10.728;2023-04-06T22:34:59;5.83;;;5.00;;
14048;SDS011;7099;53.922;10.728;2023-04-06T22:39:05;6.80;;;4.40;;
14048;SDS011;7099;53.922;10.728;2023-04-06T22:43:11;8.13;;;4.90;;
14048;SDS011;7099;53.922;10.728;2023-04-06T22:47:17;9.00;;;4.80;;
14048;SDS011;7099;53.922;10.728;2023-04-06T22:51:22;8.10;;;5.00;;
14048;SDS011;7099;53.922;10.728;2023-04-06T22:55:28;7.43;;;4.97;;
14048;SDS011;7099;53.922;10.728;2023-04-06T22:59:34;10.63;;;4.50;;
14048;SDS011;7099;53.922;10.728;2023-04-06T23:03:40;5.77;;;4.43;;
14048;SDS011;7099;53.922;10.728;2023-04-06T23:07:45;7.50;;;4.20;;
14048;SDS011;7099;53.922;10.728;2023-04-06T23:11:51;5.80;;;4.00;;
14048;SDS011;7099;53.922;10.728;2023-04-06T23:15:57;4.57;;;4.10;;
14048;SDS011;7099;53.922;10.728;2023-04-06T23:20:03;6.33;;;4.40;;
14048;SDS011;7099;53.922;10.728;2023-04-06T23:24:09;7.57;;;4.33;;
14048;SDS011;7099;53.922;10.728;2023-04-06T23:28:15;4.50;;;3.90;;
14048;SDS011;7099;53.922;10.728;2023-04-06T23:32:20;5.20;;;3.60;;
14048;SDS011;7099;53.922;10.728;2023-04-06T23:36:27;7.77;;;3.70;;
14048;SDS011;7099;53.922;10.728;2023-04-06T23:40:35;6.00;;;4.03;;
14048;SDS011;7099;53.922;10.728;2023-04-06T23:44:42;4.20;;;3.47;;
14048;SDS011;7099;53.922;10.728;2023-04-06T23:48:48;6.87;;;3.80;;
14048;SDS011;7099;53.922;10.728;2023-04-06T23:52:53;5.77;;;3.63;;
14048;SDS011;7099;53.922;10.728;2023-04-06T23:56:59;5.70;;;3.70;;
